Open Full Screen Window  High Contrast Mode
Wind Gusting 00 knots
06
June 23, 2017 4:24 PM EDT
Present Weather: Light Rain
Weather Information
Wind Direction
  210 °
Wind Speed
  06 kt (7 mph)
Wind Gust
  00 kt (0 mph)
Altimeter
29.74 in
Visibility
7 SM
Temperature
20° C
68° F
Dewpoint
20° C
68° F
Humidity
100%
1hr Rain Fall
00.04 in.
24hr Rain Fall
02.04 in.
Sky Condition
Overcast @ 5,000 ft
Broken @ 3,300 ft
Scattered @ 400 ft
VFR

METAR KI19 232024Z AUTO 21006KT 7SM -RA SCT004 BKN033 OVC050 20/20 A2974 RMK AO2 LTG DSNT SE P0004 T02000195

*Background is not an actual portrayal of the airport.